createdAt,value
2023-01-26T00:01:29.388Z,98.33
2023-01-26T00:03:57.534Z,96.90
2023-01-26T00:06:26.239Z,92.97
2023-01-26T00:08:56.653Z,87.57
2023-01-26T00:11:27.201Z,93.57
2023-01-26T00:13:56.977Z,92.90
2023-01-26T00:16:25.324Z,95.67
2023-01-26T00:18:53.936Z,93.30
2023-01-26T00:21:23.801Z,94.30
2023-01-26T00:23:52.799Z,89.07
2023-01-26T00:26:25.301Z,91.57
2023-01-26T00:28:53.674Z,90.60
2023-01-26T00:31:27.470Z,90.03
2023-01-26T00:33:56.060Z,86.13
2023-01-26T00:36:23.498Z,81.63
2023-01-26T00:38:53.382Z,85.17
2023-01-26T00:41:39.339Z,89.73
2023-01-26T00:44:06.495Z,92.63
2023-01-26T00:46:33.496Z,88.03
2023-01-26T00:49:01.132Z,89.43
2023-01-26T00:51:28.651Z,85.20
2023-01-26T00:53:55.929Z,84.90
2023-01-26T00:56:23.128Z,82.83
2023-01-26T00:58:50.838Z,83.43
2023-01-26T01:01:17.969Z,82.27
2023-01-26T01:03:45.168Z,80.37
2023-01-26T01:06:15.182Z,81.83
2023-01-26T01:08:42.183Z,82.93
2023-01-26T01:11:11.995Z,82.33
2023-01-26T01:13:39.874Z,81.47
2023-01-26T01:16:13.683Z,79.00
2023-01-26T01:18:42.554Z,79.17
2023-01-26T01:21:13.104Z,83.73
2023-01-26T01:23:41.363Z,88.27
2023-01-26T01:26:09.640Z,79.43
2023-01-26T01:28:38.202Z,82.37
2023-01-26T01:31:07.479Z,81.03
2023-01-26T01:33:34.953Z,85.13
2023-01-26T01:36:10.296Z,82.90
2023-01-26T01:38:37.765Z,81.60
2023-01-26T01:41:05.188Z,80.53
2023-01-26T01:43:32.710Z,81.40
2023-01-26T01:46:06.420Z,77.83
2023-01-26T01:48:52.618Z,81.17
2023-01-26T01:51:45.214Z,77.97
2023-01-26T01:54:17.749Z,79.40
2023-01-26T01:56:53.445Z,78.00
2023-01-26T01:59:21.529Z,77.47
2023-01-26T02:01:52.049Z,78.27
2023-01-26T02:04:22.698Z,72.13
2023-01-26T02:06:57.172Z,74.53
2023-01-26T02:09:50.707Z,76.50
2023-01-26T02:12:23.084Z,77.00
2023-01-26T02:14:53.139Z,78.17
2023-01-26T02:17:20.525Z,74.83
2023-01-26T02:19:54.974Z,71.83
2023-01-26T02:22:52.833Z,72.20
2023-01-26T02:25:52.035Z,74.90
2023-01-26T02:28:23.169Z,65.87
2023-01-26T02:30:51.366Z,71.77
2023-01-26T02:33:25.778Z,71.80
2023-01-26T02:35:53.531Z,68.07
2023-01-26T02:38:24.222Z,70.87
2023-01-26T02:41:36.911Z,72.90
2023-01-26T02:44:07.735Z,71.10
2023-01-26T02:46:35.254Z,65.43
2023-01-26T02:49:21.674Z,74.53
2023-01-26T02:51:48.758Z,68.53
2023-01-26T02:54:35.835Z,71.27
2023-01-26T02:57:03.210Z,69.47
2023-01-26T02:59:30.452Z,69.53
2023-01-26T03:01:58.353Z,72.00
2023-01-26T03:04:25.746Z,68.83
2023-01-26T03:06:53.366Z,69.67
2023-01-26T03:09:20.393Z,69.97
2023-01-26T03:11:47.758Z,72.70
2023-01-26T03:14:15.841Z,72.20
2023-01-26T03:16:43.928Z,72.20
2023-01-26T03:19:33.137Z,74.57
2023-01-26T03:22:18.967Z,72.23
2023-01-26T03:25:05.261Z,71.53
2023-01-26T03:27:42.672Z,68.20
2023-01-26T03:30:11.333Z,65.13
2023-01-26T03:32:39.094Z,73.10
2023-01-26T03:35:07.537Z,72.37
2023-01-26T03:37:43.636Z,64.87
2023-01-26T03:40:31.787Z,74.10
2023-01-26T03:43:17.926Z,71.80
2023-01-26T03:46:03.435Z,69.97
2023-01-26T03:48:49.425Z,69.20
2023-01-26T03:51:35.071Z,69.10
2023-01-26T03:54:20.996Z,65.07
2023-01-26T03:56:47.974Z,67.70
2023-01-26T03:59:16.807Z,62.07
2023-01-26T04:02:06.942Z,68.67
2023-01-26T04:04:53.025Z,66.13
2023-01-26T04:07:38.637Z,62.90
2023-01-26T04:10:06.515Z,58.17
2023-01-26T04:12:33.720Z,58.43
2023-01-26T04:15:19.856Z,55.93
2023-01-26T04:18:05.403Z,61.83
2023-01-26T04:20:50.932Z,61.73
2023-01-26T04:23:19.932Z,58.43
2023-01-26T04:25:48.837Z,58.30
2023-01-26T04:28:16.325Z,57.07
2023-01-26T04:30:43.743Z,56.90
2023-01-26T04:33:10.985Z,55.67
2023-01-26T04:35:40.731Z,55.63
2023-01-26T04:38:07.847Z,55.80
2023-01-26T04:40:34.851Z,54.57
2023-01-26T04:43:02.077Z,54.53
2023-01-26T04:45:29.277Z,56.50
2023-01-26T04:47:56.451Z,55.87
2023-01-26T04:50:23.540Z,52.70
2023-01-26T04:52:50.672Z,55.27
2023-01-26T04:55:17.663Z,56.00
2023-01-26T04:57:44.647Z,52.20
2023-01-26T05:00:13.230Z,51.00
2023-01-26T05:02:40.942Z,52.47
2023-01-26T05:05:08.593Z,58.87
2023-01-26T05:07:35.707Z,47.83
2023-01-26T05:10:02.987Z,49.53
2023-01-26T05:12:37.411Z,45.53
2023-01-26T05:15:05.031Z,49.50
2023-01-26T05:17:32.324Z,44.77
2023-01-26T05:19:59.493Z,49.23
2023-01-26T05:22:26.470Z,50.10
2023-01-26T05:24:53.435Z,45.77
2023-01-26T05:27:23.791Z,45.57
2023-01-26T05:29:51.859Z,44.90
2023-01-26T05:32:19.192Z,45.47
2023-01-26T05:34:46.450Z,45.93
2023-01-26T05:37:15.060Z,41.03
2023-01-26T05:39:42.639Z,47.17
2023-01-26T05:42:12.085Z,48.80
2023-01-26T05:44:39.843Z,42.37
2023-01-26T05:47:07.183Z,42.87
2023-01-26T05:49:34.427Z,42.27
2023-01-26T05:52:01.751Z,39.93
2023-01-26T05:54:29.089Z,42.60
2023-01-26T05:56:57.674Z,42.03
2023-01-26T05:59:24.999Z,40.90
2023-01-26T06:01:52.316Z,41.77
2023-01-26T06:04:19.770Z,42.87
2023-01-26T06:06:47.106Z,41.83
2023-01-26T06:09:14.689Z,43.00
2023-01-26T06:11:41.788Z,42.43
2023-01-26T06:14:08.978Z,42.03
2023-01-26T06:16:36.159Z,40.13
2023-01-26T06:19:03.928Z,44.80
2023-01-26T06:21:34.400Z,40.70
2023-01-26T06:24:01.716Z,41.70
2023-01-26T06:26:29.156Z,42.93
2023-01-26T06:28:56.715Z,41.23
2023-01-26T06:31:29.666Z,39.80
2023-01-26T06:33:56.896Z,41.07
2023-01-26T06:36:24.074Z,37.40
2023-01-26T06:38:56.894Z,39.67
2023-01-26T06:41:24.512Z,39.27
2023-01-26T06:43:51.668Z,43.47
2023-01-26T06:46:19.605Z,39.00
2023-01-26T06:48:47.216Z,40.33
2023-01-26T06:51:20.290Z,41.03
2023-01-26T06:53:59.076Z,40.20
2023-01-26T06:56:28.721Z,44.00
2023-01-26T06:58:56.019Z,44.83
2023-01-26T07:01:26.793Z,44.07
2023-01-26T07:03:55.446Z,41.97
2023-01-26T07:06:22.828Z,43.83
2023-01-26T07:08:49.919Z,42.47
2023-01-26T07:11:17.390Z,46.60
2023-01-26T07:13:44.585Z,46.43
2023-01-26T07:16:16.318Z,46.43
2023-01-26T07:18:44.361Z,49.83
2023-01-26T07:21:15.990Z,44.93
2023-01-26T07:23:43.245Z,46.60
2023-01-26T07:26:11.015Z,39.10
2023-01-26T07:28:40.175Z,45.80
2023-01-26T07:31:08.778Z,44.07
2023-01-26T07:33:36.123Z,45.40
2023-01-26T07:36:04.176Z,41.27
2023-01-26T07:38:32.916Z,46.80
2023-01-26T07:41:04.388Z,44.93
2023-01-26T07:43:34.610Z,50.80
2023-01-26T07:46:02.211Z,45.07
2023-01-26T07:48:32.229Z,43.60
2023-01-26T07:51:02.072Z,45.47
2023-01-26T07:53:30.915Z,47.17
2023-01-26T07:56:13.550Z,45.40
2023-01-26T07:58:41.161Z,43.33
2023-01-26T08:01:13.737Z,39.50
2023-01-26T08:03:49.980Z,42.47
2023-01-26T08:06:18.518Z,42.30
2023-01-26T08:08:53.986Z,43.87
2023-01-26T08:11:23.616Z,41.57
2023-01-26T08:13:51.138Z,36.60
2023-01-26T08:16:18.797Z,40.07
2023-01-26T08:18:47.338Z,40.03
2023-01-26T08:21:17.425Z,37.53
2023-01-26T08:23:51.567Z,35.70
2023-01-26T08:26:20.144Z,35.93
2023-01-26T08:28:48.091Z,38.70
2023-01-26T08:31:20.767Z,35.33
2023-01-26T08:33:50.911Z,37.73
2023-01-26T08:36:22.079Z,37.60
2023-01-26T08:38:51.363Z,40.27
2023-01-26T08:41:21.696Z,39.30
2023-01-26T08:43:49.012Z,36.93
2023-01-26T08:46:16.332Z,35.10
2023-01-26T08:48:43.767Z,35.97
2023-01-26T08:51:11.173Z,35.23
2023-01-26T08:53:38.700Z,39.20
2023-01-26T08:56:10.595Z,37.73
2023-01-26T08:58:38.828Z,34.77
2023-01-26T09:01:13.429Z,36.33
2023-01-26T09:03:41.546Z,41.00
2023-01-26T09:06:10.861Z,36.50
2023-01-26T09:08:38.491Z,36.43
2023-01-26T09:11:07.581Z,36.17
2023-01-26T09:13:37.127Z,36.57
2023-01-26T09:16:07.107Z,36.70
2023-01-26T09:18:38.949Z,34.83
2023-01-26T09:21:10.096Z,36.27
2023-01-26T09:23:38.817Z,40.23
2023-01-26T09:26:05.968Z,33.90
2023-01-26T09:28:33.099Z,32.83
2023-01-26T09:31:09.812Z,38.20
2023-01-26T09:33:37.833Z,32.73
2023-01-26T09:36:08.058Z,33.60
2023-01-26T09:38:35.514Z,31.80
2023-01-26T09:41:41.172Z,34.27
2023-01-26T09:44:25.669Z,34.27
2023-01-26T09:47:46.555Z,33.93
2023-01-26T09:50:35.092Z,40.70
2023-01-26T09:53:07.098Z,36.93
2023-01-26T09:55:34.313Z,33.93
2023-01-26T09:58:13.007Z,44.03
2023-01-26T10:00:58.116Z,49.07
2023-01-26T10:04:11.287Z,44.40
2023-01-26T10:06:38.982Z,42.33
2023-01-26T10:09:23.011Z,41.83
2023-01-26T10:11:59.269Z,41.10
2023-01-26T10:14:40.910Z,46.13
2023-01-26T10:17:20.538Z,44.13
2023-01-26T10:20:00.097Z,45.23
2023-01-26T10:22:44.721Z,45.03
2023-01-26T10:25:19.595Z,48.27
2023-01-26T10:27:47.122Z,49.90
2023-01-26T10:30:20.474Z,59.00
2023-01-26T10:32:52.482Z,50.27
2023-01-26T10:35:24.457Z,57.77
2023-01-26T10:37:53.194Z,53.07
2023-01-26T10:40:21.799Z,50.67
2023-01-26T10:42:59.699Z,56.80
2023-01-26T10:45:34.004Z,51.57
2023-01-26T10:48:16.200Z,61.60
2023-01-26T10:50:43.532Z,53.87
2023-01-26T10:53:30.610Z,47.57
2023-01-26T10:56:17.327Z,55.53
2023-01-26T10:58:55.194Z,48.13
2023-01-26T11:01:27.478Z,52.13
2023-01-26T11:04:14.983Z,47.33
2023-01-26T11:06:42.194Z,49.27
2023-01-26T11:09:15.443Z,54.17
2023-01-26T11:11:54.209Z,48.90
2023-01-26T11:14:21.340Z,52.97
2023-01-26T11:17:26.107Z,56.63
2023-01-26T11:20:27.084Z,58.00
2023-01-26T11:23:02.941Z,56.60
2023-01-26T11:25:45.056Z,58.87
2023-01-26T11:28:24.408Z,54.13
2023-01-26T11:31:16.217Z,61.43
2023-01-26T11:34:40.341Z,65.30
2023-01-26T11:37:45.407Z,54.60
2023-01-26T11:40:28.618Z,57.03
2023-01-26T11:43:24.244Z,56.53
2023-01-26T11:46:16.542Z,65.53
2023-01-26T11:49:25.225Z,47.53
2023-01-26T11:52:14.420Z,48.93
2023-01-26T11:55:11.055Z,54.70
2023-01-26T11:58:25.935Z,54.97
2023-01-26T12:01:06.045Z,63.60
2023-01-26T12:03:52.051Z,55.60
2023-01-26T12:06:28.689Z,57.37
2023-01-26T12:09:18.797Z,59.57
2023-01-26T12:12:08.928Z,59.23
2023-01-26T12:14:58.181Z,55.20
2023-01-26T12:17:42.643Z,58.53
2023-01-26T12:20:24.741Z,58.60
2023-01-26T12:23:04.752Z,56.70
2023-01-26T12:25:53.167Z,53.10
2023-01-26T12:28:42.200Z,58.97
2023-01-26T12:31:25.263Z,58.87
2023-01-26T12:33:56.795Z,45.20
2023-01-26T12:37:02.780Z,52.70
2023-01-26T12:40:25.574Z,49.23
2023-01-26T12:43:20.312Z,50.40
2023-01-26T12:45:54.525Z,47.47
2023-01-26T12:48:45.657Z,50.57
2023-01-26T12:51:36.085Z,46.63
2023-01-26T12:54:22.653Z,48.23
2023-01-26T12:56:56.459Z,43.63
2023-01-26T12:59:47.232Z,51.33
2023-01-26T13:02:15.670Z,44.23
2023-01-26T13:04:48.989Z,44.10
2023-01-26T13:07:40.971Z,43.57
2023-01-26T13:10:20.437Z,50.20
2023-01-26T13:12:58.628Z,44.13
2023-01-26T13:15:31.612Z,36.37
2023-01-26T13:18:01.585Z,46.30
2023-01-26T13:20:40.577Z,44.57
2023-01-26T13:23:43.374Z,43.40
2023-01-26T13:26:15.583Z,38.47
2023-01-26T13:28:44.060Z,39.43
2023-01-26T13:31:12.768Z,42.70
2023-01-26T13:33:42.110Z,36.83
2023-01-26T13:36:18.397Z,38.07
2023-01-26T13:39:00.252Z,37.77
2023-01-26T13:41:27.360Z,38.73
2023-01-26T13:44:22.949Z,34.07
2023-01-26T13:47:02.614Z,31.40
2023-01-26T13:49:42.066Z,34.87
2023-01-26T13:52:22.904Z,34.63
2023-01-26T13:54:57.999Z,30.27
2023-01-26T13:57:30.657Z,29.63
2023-01-26T14:00:00.969Z,29.77
2023-01-26T14:02:32.005Z,28.77
2023-01-26T14:05:01.862Z,24.63
2023-01-26T14:07:39.915Z,23.43
2023-01-26T14:10:08.812Z,23.53
2023-01-26T14:12:45.995Z,19.30
2023-01-26T14:15:31.394Z,20.33
2023-01-26T14:18:02.543Z,22.47
2023-01-26T14:20:32.519Z,27.67
2023-01-26T14:23:10.513Z,25.90
2023-01-26T14:25:39.253Z,18.40
2023-01-26T14:28:13.097Z,19.67
2023-01-26T14:30:40.974Z,23.63
2023-01-26T14:33:17.352Z,21.17
2023-01-26T14:36:01.414Z,20.90
2023-01-26T14:38:33.076Z,14.27
2023-01-26T14:41:01.496Z,17.37
2023-01-26T14:43:28.724Z,16.43
2023-01-26T14:46:09.479Z,19.00
2023-01-26T14:49:05.982Z,16.07
2023-01-26T14:51:36.813Z,18.53
2023-01-26T14:54:16.227Z,14.07
2023-01-26T14:56:47.769Z,13.50
2023-01-26T14:59:23.678Z,11.90
2023-01-26T15:01:51.314Z,16.50
2023-01-26T15:04:38.319Z,15.87
2023-01-26T15:07:37.542Z,11.10
2023-01-26T15:10:43.891Z,13.53
2023-01-26T15:13:10.979Z,12.63
2023-01-26T15:15:41.450Z,15.43
2023-01-26T15:18:14.783Z,13.50
2023-01-26T15:21:19.548Z,8.77
2023-01-26T15:23:52.136Z,11.87
2023-01-26T15:26:29.668Z,11.83
2023-01-26T15:29:00.433Z,9.70
2023-01-26T15:31:42.511Z,12.67
2023-01-26T15:34:48.372Z,12.50
2023-01-26T15:37:33.842Z,9.90
2023-01-26T15:40:00.972Z,11.50
2023-01-26T15:42:32.935Z,19.03
2023-01-26T15:45:00.312Z,15.50
2023-01-26T15:47:27.641Z,9.60
2023-01-26T15:49:54.793Z,12.33
2023-01-26T15:52:30.494Z,9.87
2023-01-26T15:54:57.821Z,12.50
2023-01-26T15:57:24.984Z,11.27
2023-01-26T15:59:52.238Z,12.00
2023-01-26T16:02:21.391Z,10.90
2023-01-26T16:04:48.635Z,14.63
2023-01-26T16:07:18.088Z,13.43
2023-01-26T16:09:45.408Z,7.47
2023-01-26T16:12:30.842Z,11.40
2023-01-26T16:14:59.716Z,10.67
2023-01-26T16:17:26.796Z,18.10
2023-01-26T16:19:55.371Z,10.37
2023-01-26T16:22:22.668Z,13.77
2023-01-26T16:24:50.081Z,14.47
2023-01-26T16:27:17.382Z,11.90
2023-01-26T16:29:44.535Z,11.17
2023-01-26T16:32:42.549Z,10.13
2023-01-26T16:35:17.338Z,9.37
2023-01-26T16:37:45.310Z,9.57
2023-01-26T16:40:15.942Z,10.47
2023-01-26T16:42:53.805Z,10.10
2023-01-26T16:45:26.666Z,11.57
2023-01-26T16:47:56.941Z,9.33
2023-01-26T16:50:26.211Z,9.17
2023-01-26T16:52:53.511Z,7.70
2023-01-26T16:55:20.738Z,9.47
2023-01-26T16:57:49.975Z,11.83
2023-01-26T17:00:20.424Z,10.50
2023-01-26T17:02:52.769Z,10.40
2023-01-26T17:05:21.979Z,10.70
2023-01-26T17:07:51.035Z,9.63
2023-01-26T17:10:18.813Z,12.20
2023-01-26T17:12:46.064Z,10.03
2023-01-26T17:15:13.555Z,12.60
2023-01-26T17:17:42.468Z,11.03
2023-01-26T17:20:19.245Z,10.93
2023-01-26T17:22:47.694Z,10.20
2023-01-26T17:25:17.700Z,15.43
2023-01-26T17:27:47.442Z,11.27
2023-01-26T17:30:14.981Z,13.80
2023-01-26T17:32:42.855Z,30.10
2023-01-26T17:35:10.667Z,19.23
2023-01-26T17:37:39.577Z,12.17
2023-01-26T17:40:09.321Z,9.73
2023-01-26T17:42:36.558Z,10.37
2023-01-26T17:45:05.698Z,13.43
2023-01-26T17:47:33.979Z,12.43
2023-01-26T17:50:01.583Z,9.10
2023-01-26T17:52:31.369Z,11.60
2023-01-26T17:54:59.101Z,13.30
2023-01-26T17:57:26.461Z,13.47
2023-01-26T17:59:53.775Z,11.57
2023-01-26T18:02:21.088Z,12.33
2023-01-26T18:04:49.060Z,8.77
2023-01-26T18:07:16.304Z,11.03
2023-01-26T18:09:43.426Z,7.30
2023-01-26T18:12:10.579Z,11.33
2023-01-26T18:14:37.703Z,7.07
2023-01-26T18:17:04.843Z,5.47
2023-01-26T18:19:32.003Z,10.17
2023-01-26T18:21:59.056Z,6.93
2023-01-26T18:24:26.539Z,7.87
2023-01-26T18:26:53.819Z,7.20
2023-01-26T18:29:20.944Z,8.53
2023-01-26T18:31:48.291Z,8.67
2023-01-26T18:34:15.717Z,12.07
2023-01-26T18:36:42.991Z,8.87
2023-01-26T18:39:14.423Z,6.07
2023-01-26T18:41:44.513Z,5.23
2023-01-26T18:44:11.995Z,8.07
2023-01-26T18:46:39.415Z,6.67
2023-01-26T18:49:06.599Z,14.90
2023-01-26T18:51:36.021Z,5.40
2023-01-26T18:54:04.821Z,7.93
2023-01-26T18:56:32.483Z,10.37
2023-01-26T18:58:59.752Z,6.30
2023-01-26T19:01:28.520Z,7.93
2023-01-26T19:03:56.072Z,8.20
2023-01-26T19:06:25.910Z,5.90
2023-01-26T19:09:00.431Z,7.17
2023-01-26T19:11:31.321Z,6.40
2023-01-26T19:13:59.925Z,7.53
2023-01-26T19:16:28.945Z,8.17
2023-01-26T19:18:56.771Z,10.70
2023-01-26T19:21:27.499Z,8.90
2023-01-26T19:23:57.620Z,8.43
2023-01-26T19:26:29.396Z,10.87
2023-01-26T19:28:58.177Z,9.03
2023-01-26T19:31:26.768Z,6.63
2023-01-26T19:33:59.603Z,9.77
2023-01-26T19:36:29.100Z,11.80
2023-01-26T19:38:56.515Z,10.33
2023-01-26T19:41:25.037Z,10.87
2023-01-26T19:43:52.671Z,12.53
2023-01-26T19:46:20.940Z,14.00
2023-01-26T19:48:49.145Z,14.77
2023-01-26T19:51:26.404Z,8.90
2023-01-26T19:53:58.978Z,14.87
2023-01-26T19:56:35.082Z,12.63
2023-01-26T19:59:06.689Z,13.27
2023-01-26T20:01:34.489Z,11.10
2023-01-26T20:04:05.406Z,17.03
2023-01-26T20:06:35.375Z,8.80
2023-01-26T20:09:06.222Z,12.17
2023-01-26T20:11:34.157Z,10.50
2023-01-26T20:14:06.267Z,9.57
2023-01-26T20:16:34.381Z,9.60
2023-01-26T20:19:02.555Z,10.77
2023-01-26T20:21:31.505Z,13.80
2023-01-26T20:24:05.254Z,12.00
2023-01-26T20:26:35.263Z,14.30
2023-01-26T20:29:03.496Z,14.57
2023-01-26T20:31:32.641Z,12.50
2023-01-26T20:34:01.762Z,16.17
2023-01-26T20:36:29.327Z,14.43
2023-01-26T20:38:57.335Z,10.40
2023-01-26T20:41:28.447Z,10.70
2023-01-26T20:44:00.524Z,10.10
2023-01-26T20:46:31.959Z,10.47
2023-01-26T20:48:59.624Z,14.20
2023-01-26T20:51:31.404Z,10.80
2023-01-26T20:53:58.792Z,12.00
2023-01-26T20:56:26.872Z,11.43
2023-01-26T20:58:56.182Z,9.80
2023-01-26T21:01:24.269Z,12.97
2023-01-26T21:03:52.166Z,13.83
2023-01-26T21:06:22.329Z,14.27
2023-01-26T21:08:54.094Z,12.17
2023-01-26T21:11:22.954Z,14.30
2023-01-26T21:13:52.090Z,12.43
2023-01-26T21:16:20.027Z,12.20
2023-01-26T21:18:47.668Z,10.27
2023-01-26T21:21:19.014Z,8.60
2023-01-26T21:23:47.425Z,14.27
2023-01-26T21:26:22.135Z,7.93
2023-01-26T21:28:59.683Z,12.77
2023-01-26T21:31:30.220Z,11.07
2023-01-26T21:34:02.640Z,12.23
2023-01-26T21:36:32.243Z,13.53
2023-01-26T21:39:00.881Z,11.17
2023-01-26T21:41:52.066Z,13.97
2023-01-26T21:44:28.664Z,11.40
2023-01-26T21:46:59.696Z,7.63
2023-01-26T21:49:28.637Z,9.07
2023-01-26T21:52:14.739Z,12.40
2023-01-26T21:54:41.997Z,13.70
2023-01-26T21:57:29.082Z,10.87
2023-01-26T21:59:56.679Z,16.57
2023-01-26T22:02:24.046Z,10.70
2023-01-26T22:04:52.219Z,11.60
2023-01-26T22:07:19.559Z,16.70
2023-01-26T22:09:46.660Z,13.73
2023-01-26T22:12:13.842Z,14.37
2023-01-26T22:14:40.968Z,12.40
2023-01-26T22:17:08.084Z,9.27
2023-01-26T22:19:35.808Z,7.53
2023-01-26T22:22:03.714Z,10.43
2023-01-26T22:24:31.354Z,16.53
2023-01-26T22:26:58.515Z,10.37
2023-01-26T22:29:25.630Z,15.13
2023-01-26T22:31:52.858Z,13.60
2023-01-26T22:34:20.050Z,11.40
2023-01-26T22:36:47.254Z,14.67
2023-01-26T22:39:14.658Z,12.87
2023-01-26T22:41:41.900Z,13.30
2023-01-26T22:44:09.421Z,22.47
2023-01-26T22:46:36.897Z,11.70
2023-01-26T22:49:07.017Z,9.33
2023-01-26T22:51:37.345Z,17.80
2023-01-26T22:54:06.207Z,12.90
2023-01-26T22:56:33.848Z,11.77
2023-01-26T22:59:01.683Z,12.67
2023-01-26T23:01:31.510Z,13.07
2023-01-26T23:04:00.388Z,15.73
2023-01-26T23:06:28.365Z,19.77
2023-01-26T23:08:55.867Z,19.57
2023-01-26T23:11:28.925Z,12.90
2023-01-26T23:13:58.313Z,12.43
2023-01-26T23:16:26.810Z,12.60
2023-01-26T23:18:57.372Z,12.17
2023-01-26T23:21:25.909Z,13.53
2023-01-26T23:23:53.141Z,15.60
2023-01-26T23:26:21.021Z,17.13
2023-01-26T23:28:48.542Z,12.43
2023-01-26T23:31:18.004Z,12.40
2023-01-26T23:33:45.682Z,15.70
2023-01-26T23:36:14.534Z,11.43
2023-01-26T23:38:41.910Z,14.27
2023-01-26T23:41:09.119Z,9.27
2023-01-26T23:43:36.669Z,10.40
2023-01-26T23:46:06.491Z,11.67
2023-01-26T23:48:33.646Z,11.60
2023-01-26T23:51:04.821Z,9.83
2023-01-26T23:53:32.550Z,9.77
2023-01-26T23:56:23.059Z,11.20
2023-01-26T23:58:50.166Z,9.57
